Time;durP1;ratioP1;P1;durP2;ratioP2;P2;SDS_P1;SDS_P2;PMS_P1;PMS_P2;Temp;Humidity;BMP_temperature;BMP_pressure;BME280_temperature;BME280_humidity;BME280_pressure;Samples;Min_cycle;Max_cycle;Signal;HPM_P1;HPM_P2
2021/10/05 00:01:44;;;;;;;7.80;1.23;;;13.70;92.00;;;;;;5025103;28;20076;-64
2021/10/05 00:04:11;;;;;;;9.70;1.90;;;13.70;91.90;;;;;;5028898;28;20083;-64
2021/10/05 00:06:38;;;;;;;8.27;1.40;;;13.70;91.80;;;;;;5028450;28;20076;-65
2021/10/05 00:09:05;;;;;;;9.45;2.30;;;13.80;91.80;;;;;;5028610;28;20398;-63
2021/10/05 00:11:32;;;;;;;5.60;1.30;;;13.80;91.80;;;;;;5028649;28;20081;-64
2021/10/05 00:13:59;;;;;;;14.00;2.08;;;13.80;91.70;;;;;;5027840;28;20041;-64
2021/10/05 00:16:26;;;;;;;6.90;1.35;;;13.80;91.70;;;;;;5028620;28;20081;-64
2021/10/05 00:18:53;;;;;;;10.52;2.10;;;13.80;91.50;;;;;;5028122;28;20413;-64
2021/10/05 00:21:20;;;;;;;6.47;1.80;;;13.80;91.50;;;;;;5028683;28;20084;-64
2021/10/05 00:23:46;;;;;;;8.45;2.63;;;13.90;91.40;;;;;;5011048;28;20096;-65
2021/10/05 00:26:13;;;;;;;9.77;1.23;;;13.90;91.30;;;;;;5028233;28;20076;-65
2021/10/05 00:28:40;;;;;;;15.13;2.03;;;13.90;91.20;;;;;;5028235;28;20085;-65
2021/10/05 00:31:07;;;;;;;10.43;1.88;;;13.90;91.20;;;;;;5028913;28;20076;-65
2021/10/05 00:33:34;;;;;;;4.85;1.50;;;13.90;91.20;;;;;;5027664;28;20041;-65
2021/10/05 00:36:01;;;;;;;12.77;2.13;;;14.00;91.10;;;;;;5028179;28;20136;-65
2021/10/05 00:38:27;;;;;;;14.52;2.83;;;14.00;91.20;;;;;;5027870;28;20095;-64
2021/10/05 00:40:55;;;;;;;13.25;1.55;;;14.00;91.10;;;;;;5028042;28;20121;-63
2021/10/05 00:43:23;;;;;;;10.27;2.53;;;14.00;91.00;;;;;;5027998;28;20054;-64
2021/10/05 00:45:50;;;;;;;15.60;2.28;;;14.10;91.00;;;;;;5026826;28;20145;-65
2021/10/05 00:48:17;;;;;;;10.43;1.55;;;14.10;91.00;;;;;;5025842;28;20076;-63
2021/10/05 00:50:44;;;;;;;9.40;2.53;;;14.10;90.90;;;;;;5027844;28;20060;-63
2021/10/05 00:53:12;;;;;;;10.40;2.20;;;14.10;91.00;;;;;;5027986;28;20119;-65
2021/10/05 00:55:38;;;;;;;12.30;1.83;;;14.10;90.90;;;;;;5027667;28;20132;-64
2021/10/05 00:58:05;;;;;;;11.73;2.03;;;14.20;90.90;;;;;;5027779;28;20088;-65
2021/10/05 01:00:32;;;;;;;10.13;2.78;;;14.20;90.90;;;;;;5026352;28;20091;-65
2021/10/05 01:02:59;;;;;;;8.35;1.80;;;14.20;90.90;;;;;;5027721;28;20045;-65
2021/10/05 01:05:27;;;;;;;13.88;3.15;;;14.20;90.90;;;;;;5026601;28;20053;-64
2021/10/05 01:07:54;;;;;;;14.20;2.10;;;14.20;91.00;;;;;;5027890;28;20113;-64
2021/10/05 01:10:21;;;;;;;8.73;3.08;;;14.20;91.10;;;;;;5026676;28;20128;-64
2021/10/05 01:12:48;;;;;;;12.13;1.77;;;14.10;91.20;;;;;;5028462;28;20141;-64
2021/10/05 01:15:16;;;;;;;16.23;2.13;;;14.00;91.40;;;;;;5027511;28;20071;-64
2021/10/05 01:17:43;;;;;;;15.20;3.97;;;14.00;91.50;;;;;;5027241;28;20084;-64
2021/10/05 01:20:10;;;;;;;10.80;3.33;;;13.90;91.70;;;;;;5028120;28;20133;-64
2021/10/05 01:22:37;;;;;;;8.13;1.90;;;13.90;91.80;;;;;;5027512;28;20073;-64
2021/10/05 01:25:06;;;;;;;14.43;3.13;;;13.80;91.90;;;;;;5027778;28;20045;-63
2021/10/05 01:27:49;;;;;;;10.55;1.90;;;13.80;92.40;;;;;;5026864;28;20489;-64
2021/10/05 01:30:17;;;;;;;7.78;1.55;;;13.70;93.00;;;;;;5019017;28;20119;-65
2021/10/05 01:32:43;;;;;;;13.77;2.15;;;13.70;92.70;;;;;;5027980;28;20042;-63
2021/10/05 01:35:10;;;;;;;15.55;2.60;;;13.60;92.70;;;;;;5028736;28;20085;-64
2021/10/05 01:37:38;;;;;;;15.70;1.98;;;13.60;93.00;;;;;;5027177;28;20057;-64
2021/10/05 01:40:05;;;;;;;14.85;3.05;;;13.60;93.00;;;;;;5028762;28;20095;-64
2021/10/05 01:42:32;;;;;;;13.63;2.17;;;13.60;93.20;;;;;;5028699;28;20049;-63
2021/10/05 01:44:59;;;;;;;12.73;2.15;;;13.60;93.30;;;;;;5027276;28;20676;-63
2021/10/05 01:47:26;;;;;;;19.05;2.40;;;13.50;93.30;;;;;;5027617;28;20046;-65
2021/10/05 01:49:52;;;;;;;20.20;2.20;;;13.60;93.90;;;;;;5027782;28;20057;-64
2021/10/05 01:52:19;;;;;;;10.48;1.52;;;13.50;93.40;;;;;;5027729;28;20041;-64
2021/10/05 01:54:46;;;;;;;10.68;2.08;;;13.50;94.10;;;;;;5033472;28;20295;-63
2021/10/05 01:57:13;;;;;;;17.00;2.78;;;13.50;93.70;;;;;;5033221;28;20167;-64
2021/10/05 01:59:40;;;;;;;9.43;1.92;;;13.50;93.80;;;;;;5029466;28;20045;-64
2021/10/05 02:02:06;;;;;;;17.13;2.17;;;13.50;94.20;;;;;;5028205;28;20085;-64
2021/10/05 02:04:33;;;;;;;8.90;2.63;;;13.50;94.10;;;;;;5028213;28;20049;-63
2021/10/05 02:07:01;;;;;;;7.90;1.92;;;13.50;94.20;;;;;;5027567;28;20104;-64
2021/10/05 02:09:28;;;;;;;11.57;2.28;;;13.50;94.30;;;;;;5026729;28;20515;-64
2021/10/05 02:11:55;;;;;;;12.13;1.88;;;13.50;94.30;;;;;;5025899;28;20049;-64
2021/10/05 02:14:22;;;;;;;11.57;3.60;;;13.50;94.40;;;;;;5025889;28;20095;-63
2021/10/05 02:16:49;;;;;;;11.35;2.95;;;13.50;94.50;;;;;;5026317;28;20084;-63
2021/10/05 02:19:16;;;;;;;14.50;2.70;;;13.50;94.60;;;;;;5025589;28;20085;-64
2021/10/05 02:21:42;;;;;;;10.57;2.25;;;13.50;94.70;;;;;;5025522;28;20124;-62
2021/10/05 02:26:45;;;;;;;13.40;1.27;;;13.40;94.60;;;;;;5026164;28;20106;-62
2021/10/05 02:29:12;;;;;;;8.10;2.05;;;13.40;96.50;;;;;;5026353;28;20049;-62
2021/10/05 02:31:39;;;;;;;12.93;2.17;;;13.40;96.10;;;;;;5030119;28;20527;-63
2021/10/05 02:34:05;;;;;;;7.00;1.60;;;13.40;95.00;;;;;;5029261;28;20128;-64
2021/10/05 02:36:32;;;;;;;9.60;1.35;;;13.40;95.30;;;;;;5026197;28;20155;-65
2021/10/05 02:38:59;;;;;;;6.88;1.65;;;13.40;95.40;;;;;;5035666;28;20068;-64
2021/10/05 02:41:26;;;;;;;6.60;1.98;;;13.40;95.40;;;;;;5028595;28;20041;-65
2021/10/05 02:43:52;;;;;;;13.23;1.90;;;13.40;95.40;;;;;;5038163;28;20273;-63
2021/10/05 02:46:19;;;;;;;12.95;1.33;;;13.40;95.40;;;;;;5027556;28;20107;-65
2021/10/05 02:48:46;;;;;;;8.05;1.55;;;13.40;95.20;;;;;;5027678;28;20045;-63
2021/10/05 02:51:13;;;;;;;16.30;2.50;;;13.40;95.70;;;;;;5029802;28;20658;-64
2021/10/05 02:53:40;;;;;;;9.05;1.33;;;13.40;95.30;;;;;;5029167;28;20126;-64
2021/10/05 02:56:06;;;;;;;14.57;3.53;;;13.50;95.50;;;;;;5027984;28;20053;-65
2021/10/05 02:58:33;;;;;;;9.75;3.15;;;13.40;95.50;;;;;;5035985;28;20052;-64
2021/10/05 03:01:00;;;;;;;7.90;1.20;;;13.50;95.40;;;;;;5027964;28;20542;-65
2021/10/05 03:03:27;;;;;;;7.15;1.42;;;13.40;95.80;;;;;;5028835;28;20494;-65
2021/10/05 03:05:54;;;;;;;6.78;1.23;;;13.40;95.70;;;;;;5027691;28;20065;-65
2021/10/05 03:08:22;;;;;;;8.32;1.05;;;13.40;95.70;;;;;;5027772;28;20195;-64
2021/10/05 03:10:49;;;;;;;6.40;1.02;;;13.40;95.60;;;;;;5030056;28;20049;-65
2021/10/05 03:13:16;;;;;;;7.68;1.02;;;13.40;95.70;;;;;;5029164;28;20099;-64
2021/10/05 03:15:43;;;;;;;6.25;1.17;;;13.40;95.60;;;;;;5030263;28;20111;-63
2021/10/05 03:18:10;;;;;;;5.88;1.00;;;13.40;95.70;;;;;;5029304;28;20091;-64
2021/10/05 03:20:36;;;;;;;5.57;1.02;;;13.40;95.80;;;;;;5029138;28;20505;-65
2021/10/05 03:23:03;;;;;;;2.42;0.90;;;13.50;95.90;;;;;;5029322;28;20563;-64
2021/10/05 03:25:30;;;;;;;6.10;1.02;;;13.40;96.20;;;;;;5029132;28;20099;-65
2021/10/05 03:27:57;;;;;;;2.67;0.73;;;13.50;95.90;;;;;;5028498;28;20095;-64
2021/10/05 03:30:23;;;;;;;3.47;0.80;;;13.50;95.90;;;;;;5016071;28;20076;-64
2021/10/05 03:32:50;;;;;;;6.78;0.60;;;13.50;95.90;;;;;;5028785;28;20567;-64
2021/10/05 03:35:18;;;;;;;2.33;0.68;;;13.50;95.80;;;;;;5028380;28;20045;-65
2021/10/05 03:37:45;;;;;;;3.53;0.70;;;13.50;95.90;;;;;;5027267;28;20088;-64
2021/10/05 03:40:13;;;;;;;4.63;1.30;;;13.50;96.00;;;;;;5032346;28;20037;-64
2021/10/05 03:42:39;;;;;;;7.47;1.40;;;13.50;95.90;;;;;;5028833;28;20080;-63
2021/10/05 03:45:07;;;;;;;4.38;0.63;;;13.50;96.20;;;;;;5028771;28;20485;-64
2021/10/05 03:47:36;;;;;;;2.78;0.75;;;13.50;96.10;;;;;;5028151;28;20637;-64
2021/10/05 03:50:09;;;;;;;9.48;1.33;;;13.50;96.60;;;;;;5019020;28;20088;-66
2021/10/05 03:52:37;;;;;;;10.60;0.68;;;13.50;96.60;;;;;;5030484;28;20072;-64
2021/10/05 03:55:06;;;;;;;8.63;0.60;;;13.50;96.30;;;;;;5028633;28;20107;-64
2021/10/05 03:57:33;;;;;;;0.98;0.45;;;13.40;96.00;;;;;;5027075;28;20107;-64
2021/10/05 03:59:59;;;;;;;1.77;0.65;;;13.30;95.40;;;;;;5038429;28;20037;-64
2021/10/05 04:02:26;;;;;;;5.75;1.00;;;13.20;95.40;;;;;;5022838;28;20118;-64
2021/10/05 04:04:53;;;;;;;6.15;1.05;;;13.10;95.30;;;;;;5019896;28;20041;-65
2021/10/05 04:07:20;;;;;;;0.85;0.47;;;12.90;95.60;;;;;;5031847;28;20098;-64
2021/10/05 04:09:47;;;;;;;2.03;0.50;;;12.80;95.80;;;;;;5027110;28;20045;-63
2021/10/05 04:12:14;;;;;;;7.28;0.73;;;12.80;95.80;;;;;;5027558;28;20081;-64
2021/10/05 04:14:41;;;;;;;3.17;0.60;;;12.70;95.80;;;;;;5027645;28;20460;-64
2021/10/05 04:17:07;;;;;;;3.25;0.77;;;12.70;96.10;;;;;;5027170;28;20053;-66
2021/10/05 04:19:34;;;;;;;4.57;0.73;;;12.70;96.20;;;;;;5028097;28;20041;-64
2021/10/05 04:22:01;;;;;;;2.90;0.40;;;12.70;96.30;;;;;;5033741;28;20100;-63
2021/10/05 04:24:28;;;;;;;1.00;0.50;;;12.70;96.00;;;;;;5032134;28;20114;-66
2021/10/05 04:26:54;;;;;;;4.18;0.75;;;12.70;96.00;;;;;;5013331;28;20057;-65
2021/10/05 04:29:21;;;;;;;2.85;0.50;;;12.70;96.10;;;;;;5027781;28;20501;-65
2021/10/05 04:31:48;;;;;;;4.47;0.50;;;12.60;96.10;;;;;;5027446;28;20060;-65
2021/10/05 04:34:15;;;;;;;5.97;0.93;;;12.60;96.10;;;;;;5027100;28;20077;-65
2021/10/05 04:36:42;;;;;;;3.33;0.80;;;12.60;96.10;;;;;;5032674;28;20080;-65
2021/10/05 04:39:08;;;;;;;2.38;0.60;;;12.60;95.90;;;;;;5025784;28;20105;-65
2021/10/05 04:41:35;;;;;;;3.28;0.70;;;12.60;96.00;;;;;;5027719;28;20824;-66
2021/10/05 04:44:02;;;;;;;5.28;0.70;;;12.60;96.10;;;;;;5027332;28;20136;-65
2021/10/05 04:46:29;;;;;;;5.25;1.02;;;12.60;96.00;;;;;;5026982;28;20583;-65
2021/10/05 04:48:56;;;;;;;4.00;0.60;;;12.50;96.10;;;;;;5026943;28;20542;-64
2021/10/05 04:51:23;;;;;;;1.92;0.57;;;12.50;96.00;;;;;;5032180;28;20466;-64
2021/10/05 04:53:49;;;;;;;5.07;0.75;;;12.50;96.20;;;;;;5029928;28;20124;-65
2021/10/05 04:56:16;;;;;;;2.83;1.02;;;12.50;96.20;;;;;;5030059;28;20049;-63
2021/10/05 04:58:43;;;;;;;1.50;0.55;;;12.50;96.20;;;;;;5027589;28;20121;-64
2021/10/05 05:01:10;;;;;;;1.63;0.70;;;12.40;96.10;;;;;;5027509;28;20053;-65
2021/10/05 05:03:37;;;;;;;6.75;1.00;;;12.40;96.10;;;;;;5027267;28;20045;-64
2021/10/05 05:06:03;;;;;;;2.03;0.60;;;12.50;96.40;;;;;;5027376;28;20050;-64
2021/10/05 05:08:30;;;;;;;5.53;1.52;;;12.50;96.10;;;;;;5026944;28;20041;-64
2021/10/05 05:10:57;;;;;;;7.40;1.13;;;12.40;96.10;;;;;;5020413;28;20171;-64
2021/10/05 05:13:26;;;;;;;8.75;2.00;;;12.50;96.10;;;;;;5027417;28;20085;-63
2021/10/05 05:15:53;;;;;;;4.47;1.08;;;12.50;96.10;;;;;;5027502;28;20077;-63
2021/10/05 05:18:20;;;;;;;4.90;1.05;;;12.40;96.00;;;;;;5026703;28;20049;-64
2021/10/05 05:20:47;;;;;;;1.60;0.63;;;12.40;96.00;;;;;;5026151;28;20053;-64
2021/10/05 05:23:13;;;;;;;2.25;0.73;;;12.50;96.20;;;;;;5027600;28;20127;-65
2021/10/05 05:25:43;;;;;;;2.15;1.08;;;12.40;95.90;;;;;;5026874;28;20134;-63
2021/10/05 05:28:10;;;;;;;5.18;1.00;;;12.40;96.10;;;;;;5027453;28;20468;-64
2021/10/05 05:30:37;;;;;;;4.95;1.10;;;12.40;96.20;;;;;;5026510;28;20037;-63
2021/10/05 05:33:04;;;;;;;5.03;1.42;;;12.40;96.10;;;;;;5027116;28;20056;-64
2021/10/05 05:35:30;;;;;;;5.40;0.82;;;12.40;96.00;;;;;;5026549;28;20054;-64
2021/10/05 05:37:57;;;;;;;5.05;0.90;;;12.40;95.90;;;;;;5026584;28;20129;-64
2021/10/05 05:40:24;;;;;;;2.83;0.90;;;12.40;95.80;;;;;;5026777;28;20133;-64
2021/10/05 05:42:50;;;;;;;7.38;0.80;;;12.40;96.00;;;;;;5026736;28;20081;-65
2021/10/05 05:45:18;;;;;;;5.13;1.13;;;12.40;95.90;;;;;;5026737;28;20136;-64
2021/10/05 05:47:44;;;;;;;4.22;0.90;;;12.30;95.90;;;;;;5026739;28;20476;-64
2021/10/05 05:50:11;;;;;;;5.25;1.20;;;12.30;95.70;;;;;;5026770;28;20136;-64
2021/10/05 05:52:38;;;;;;;6.22;1.15;;;12.30;95.70;;;;;;5026622;28;20041;-64
2021/10/05 05:55:05;;;;;;;3.63;1.20;;;12.30;95.70;;;;;;5026753;28;20084;-64
2021/10/05 05:57:32;;;;;;;5.28;1.55;;;12.30;95.90;;;;;;5025005;28;20092;-64
2021/10/05 05:59:59;;;;;;;4.20;1.10;;;12.30;95.90;;;;;;5026382;28;20077;-64
2021/10/05 06:02:25;;;;;;;5.72;1.45;;;12.30;95.70;;;;;;5027678;28;20092;-64
2021/10/05 06:04:53;;;;;;;5.05;1.17;;;12.20;95.80;;;;;;5028223;28;20438;-64
2021/10/05 06:07:20;;;;;;;6.28;1.10;;;12.20;95.80;;;;;;5028512;28;20525;-64
2021/10/05 06:09:47;;;;;;;11.18;1.25;;;12.20;95.80;;;;;;5029147;28;20103;-64
2021/10/05 06:12:18;;;;;;;2.90;1.00;;;12.10;95.70;;;;;;5029022;28;20465;-63
2021/10/05 06:14:45;;;;;;;6.80;1.05;;;12.10;96.00;;;;;;5033010;28;20073;-63
2021/10/05 06:17:12;;;;;;;3.58;1.58;;;12.10;95.60;;;;;;5032801;28;20049;-63
2021/10/05 06:19:39;;;;;;;7.68;1.42;;;12.00;95.80;;;;;;5031234;28;20120;-62
2021/10/05 06:22:06;;;;;;;14.30;1.55;;;12.00;95.70;;;;;;5032466;28;20057;-63
2021/10/05 06:24:32;;;;;;;8.35;1.35;;;12.00;95.80;;;;;;5032372;28;20477;-63
2021/10/05 06:26:59;;;;;;;8.95;1.55;;;12.00;95.70;;;;;;5029454;28;20547;-64
2021/10/05 06:29:26;;;;;;;14.05;1.40;;;11.90;95.60;;;;;;5029459;28;20053;-65
2021/10/05 06:31:53;;;;;;;8.48;1.38;;;11.90;95.80;;;;;;5027235;28;20095;-64
2021/10/05 06:34:20;;;;;;;6.40;1.40;;;11.90;95.70;;;;;;5029687;28;20050;-65
2021/10/05 06:36:46;;;;;;;12.35;3.78;;;11.80;95.90;;;;;;5029248;28;20531;-64
2021/10/05 06:39:13;;;;;;;10.35;2.75;;;11.80;95.60;;;;;;5028331;28;20046;-64
2021/10/05 06:41:40;;;;;;;10.50;2.83;;;11.80;95.50;;;;;;5029336;28;20057;-64
2021/10/05 06:44:07;;;;;;;6.55;2.33;;;11.70;95.60;;;;;;5028668;28;20103;-63
2021/10/05 06:46:34;;;;;;;10.32;1.85;;;11.70;95.70;;;;;;5027274;28;20140;-63
2021/10/05 06:49:00;;;;;;;5.32;1.27;;;11.60;95.60;;;;;;5028188;28;20592;-63
2021/10/05 06:51:27;;;;;;;7.03;1.35;;;11.60;95.60;;;;;;5029275;28;20049;-62
2021/10/05 06:53:54;;;;;;;11.73;1.55;;;11.60;95.40;;;;;;5029511;28;20069;-62
2021/10/05 06:56:20;;;;;;;6.65;2.17;;;11.50;95.50;;;;;;5030057;28;20140;-63
2021/10/05 06:58:47;;;;;;;9.32;1.38;;;11.50;95.40;;;;;;5028877;28;20041;-62
2021/10/05 07:01:15;;;;;;;8.05;1.13;;;11.50;95.50;;;;;;4702201;28;10000478;-62
2021/10/05 07:03:42;;;;;;;6.95;1.30;;;11.50;95.70;;;;;;5025883;28;20281;-62
2021/10/05 07:06:08;;;;;;;9.95;2.03;;;11.50;95.50;;;;;;5026417;28;20535;-61
2021/10/05 07:08:36;;;;;;;4.88;1.05;;;11.40;95.60;;;;;;5025776;28;20137;-65
2021/10/05 07:11:03;;;;;;;6.57;0.98;;;11.40;95.40;;;;;;5026303;28;20088;-62
2021/10/05 07:13:30;;;;;;;10.55;1.50;;;11.40;95.30;;;;;;5026122;28;20510;-62
2021/10/05 07:15:57;;;;;;;11.57;1.63;;;11.40;95.30;;;;;;5025618;28;20129;-62
2021/10/05 07:18:23;;;;;;;5.03;1.05;;;11.40;95.40;;;;;;5027125;28;20371;-62
2021/10/05 07:20:50;;;;;;;10.15;1.30;;;11.40;95.40;;;;;;5025890;28;20128;-62
2021/10/05 07:23:17;;;;;;;7.25;1.58;;;11.40;95.40;;;;;;5026277;28;20092;-62
2021/10/05 07:25:44;;;;;;;4.72;1.48;;;11.30;95.00;;;;;;5026557;28;20109;-62
2021/10/05 07:28:11;;;;;;;6.30;1.33;;;11.30;95.20;;;;;;5026223;28;20128;-62
2021/10/05 07:30:37;;;;;;;5.38;1.98;;;11.30;95.10;;;;;;5026570;28;20594;-62
2021/10/05 07:33:06;;;;;;;10.60;1.98;;;11.30;95.20;;;;;;5027661;28;20053;-63
2021/10/05 07:35:33;;;;;;;8.40;1.50;;;11.30;95.30;;;;;;5027162;28;20068;-62
2021/10/05 07:38:00;;;;;;;6.25;1.75;;;11.30;95.30;;;;;;5027525;28;20049;-62
2021/10/05 07:40:27;;;;;;;7.32;3.03;;;11.40;95.10;;;;;;5027264;28;20630;-62
2021/10/05 07:42:55;;;;;;;4.95;1.30;;;11.30;95.10;;;;;;5026430;28;20141;-62
2021/10/05 07:45:23;;;;;;;9.82;1.42;;;11.40;94.90;;;;;;5025630;28;20057;-63
2021/10/05 07:47:50;;;;;;;6.88;1.10;;;11.30;94.90;;;;;;5025697;28;20107;-62
2021/10/05 07:50:17;;;;;;;10.65;2.65;;;11.40;95.00;;;;;;5024864;28;20104;-63
2021/10/05 07:52:44;;;;;;;5.38;0.95;;;11.40;95.00;;;;;;5018394;28;20122;-63
2021/10/05 07:55:11;;;;;;;9.10;1.30;;;11.50;94.80;;;;;;5022812;28;20099;-63
2021/10/05 07:57:38;;;;;;;10.57;1.35;;;11.50;95.00;;;;;;5024671;28;20140;-62
2021/10/05 08:00:06;;;;;;;9.88;2.03;;;11.50;94.80;;;;;;5024528;28;20046;-63
2021/10/05 08:02:32;;;;;;;6.80;1.30;;;11.50;94.30;;;;;;5024672;28;20103;-62
2021/10/05 08:04:59;;;;;;;17.17;1.27;;;11.50;94.60;;;;;;5024900;28;20045;-64
2021/10/05 08:07:27;;;;;;;11.00;1.15;;;11.60;94.30;;;;;;5024568;28;20480;-63
2021/10/05 08:09:54;;;;;;;4.40;0.98;;;11.60;94.30;;;;;;5024589;28;20083;-63
2021/10/05 08:12:22;;;;;;;4.82;1.00;;;11.60;94.00;;;;;;5024199;28;20091;-63
2021/10/05 08:14:49;;;;;;;6.55;1.08;;;11.60;94.00;;;;;;5024236;28;20053;-62
2021/10/05 08:17:16;;;;;;;9.38;1.58;;;11.60;93.90;;;;;;5024051;28;20056;-63
2021/10/05 08:19:43;;;;;;;8.30;1.70;;;11.60;93.90;;;;;;5024180;28;20048;-62
2021/10/05 08:22:10;;;;;;;2.65;1.10;;;11.60;94.00;;;;;;5024115;28;20509;-62
2021/10/05 08:24:37;;;;;;;5.40;1.40;;;11.60;93.70;;;;;;5024159;28;20132;-62
2021/10/05 08:27:05;;;;;;;9.93;1.15;;;11.60;93.60;;;;;;5019946;28;20141;-62
2021/10/05 08:29:33;;;;;;;4.90;1.10;;;11.70;93.60;;;;;;5021583;28;20136;-63
2021/10/05 08:32:00;;;;;;;2.92;1.60;;;11.70;93.70;;;;;;5016927;28;20049;-63
2021/10/05 08:34:27;;;;;;;4.70;1.20;;;11.80;93.80;;;;;;5024049;28;20053;-64
2021/10/05 08:36:54;;;;;;;4.28;1.15;;;11.80;92.60;;;;;;5022809;28;20049;-63
2021/10/05 08:39:20;;;;;;;4.28;1.38;;;11.80;93.10;;;;;;5023775;28;20473;-63
2021/10/05 08:41:47;;;;;;;7.70;1.17;;;11.90;92.90;;;;;;5026389;28;20060;-63
2021/10/05 08:44:17;;;;;;;2.97;0.85;;;11.90;93.00;;;;;;5024061;28;20139;-63
2021/10/05 08:46:44;;;;;;;4.82;1.08;;;12.10;92.90;;;;;;5023333;28;20058;-66
2021/10/05 08:49:11;;;;;;;4.22;1.20;;;12.10;92.40;;;;;;5023638;28;20576;-63
2021/10/05 08:51:38;;;;;;;4.00;0.98;;;12.10;93.00;;;;;;5024294;28;20455;-62
2021/10/05 08:54:05;;;;;;;8.88;1.13;;;12.10;91.70;;;;;;5029237;28;20264;-63
2021/10/05 08:56:32;;;;;;;6.38;1.42;;;12.00;91.80;;;;;;5033695;28;20220;-62
2021/10/05 08:58:58;;;;;;;10.20;1.30;;;12.10;92.00;;;;;;5022792;28;20055;-62
2021/10/05 09:01:31;;;;;;;7.68;1.20;;;12.40;91.90;;;;;;5010597;28;20072;-62
2021/10/05 09:03:58;;;;;;;3.50;1.03;;;12.50;91.20;;;;;;5023412;28;20056;-63
2021/10/05 09:06:25;;;;;;;5.80;2.17;;;12.50;90.90;;;;;;5023389;28;20073;-63
2021/10/05 09:08:55;;;;;;;4.22;1.00;;;12.40;91.20;;;;;;5016214;28;20087;-63
2021/10/05 09:11:27;;;;;;;2.20;0.80;;;12.40;91.40;;;;;;5022956;28;20093;-62
2021/10/05 09:13:54;;;;;;;3.83;1.30;;;12.50;91.40;;;;;;5023440;28;20052;-61
2021/10/05 09:16:24;;;;;;;5.38;1.10;;;12.40;90.80;;;;;;5022154;28;20508;-62
2021/10/05 09:19:02;;;;;;;3.83;1.00;;;12.40;91.20;;;;;;5023118;28;20049;-62
2021/10/05 09:21:35;;;;;;;3.78;0.93;;;12.40;91.00;;;;;;5023360;28;20137;-62
2021/10/05 09:24:13;;;;;;;1.57;1.03;;;12.50;90.40;;;;;;5018696;28;20132;-63
2021/10/05 09:26:57;;;;;;;5.90;0.80;;;12.40;89.60;;;;;;5027160;28;20122;-63
2021/10/05 09:29:26;;;;;;;4.53;0.93;;;12.40;90.40;;;;;;5021684;28;20150;-63
2021/10/05 09:32:12;;;;;;;3.58;0.90;;;12.40;90.10;;;;;;5022530;28;20595;-62
2021/10/05 09:34:46;;;;;;;2.33;0.60;;;12.40;89.10;;;;;;5025913;28;20498;-62
2021/10/05 09:37:13;;;;;;;2.60;0.80;;;12.50;87.20;;;;;;5025770;28;20096;-62
2021/10/05 09:39:44;;;;;;;6.63;1.52;;;12.50;90.30;;;;;;5023330;28;20053;-64
2021/10/05 09:42:19;;;;;;;2.17;0.82;;;12.60;89.10;;;;;;5022975;28;20049;-62
2021/10/05 09:44:59;;;;;;;7.60;1.00;;;12.60;85.10;;;;;;5023231;28;20454;-62
2021/10/05 09:47:52;;;;;;;5.70;0.85;;;12.60;87.10;;;;;;5022684;28;20428;-62
2021/10/05 09:50:30;;;;;;;6.45;0.98;;;12.60;84.30;;;;;;5031793;28;20057;-63
2021/10/05 09:52:59;;;;;;;2.97;1.30;;;12.70;85.10;;;;;;5026186;28;20076;-61
2021/10/05 09:55:27;;;;;;;1.27;0.57;;;12.70;88.40;;;;;;5027325;28;20080;-62
2021/10/05 09:57:54;;;;;;;0.90;0.70;;;12.80;87.80;;;;;;5026821;28;20167;-62
2021/10/05 10:00:22;;;;;;;1.85;0.90;;;12.90;85.00;;;;;;5026397;28;20041;-62
2021/10/05 10:02:49;;;;;;;2.25;0.80;;;12.90;81.80;;;;;;5026477;28;20071;-61
2021/10/05 10:05:18;;;;;;;2.60;1.10;;;12.80;85.10;;;;;;5026865;28;20077;-61
2021/10/05 10:07:47;;;;;;;7.03;1.58;;;12.80;83.20;;;;;;5026674;28;20053;-61
2021/10/05 10:10:15;;;;;;;2.80;0.73;;;12.80;83.60;;;;;;5026347;28;20041;-61
2021/10/05 10:12:47;;;;;;;6.18;1.23;;;12.80;84.20;;;;;;5025137;28;20123;-61
2021/10/05 10:15:14;;;;;;;3.08;0.82;;;12.90;84.70;;;;;;5024747;28;20053;-61
2021/10/05 10:17:41;;;;;;;5.00;0.98;;;12.90;85.50;;;;;;5025657;28;20137;-61
2021/10/05 10:20:25;;;;;;;1.50;0.73;;;13.00;86.50;;;;;;5027165;28;20041;-62
2021/10/05 10:22:53;;;;;;;6.60;0.77;;;13.10;82.10;;;;;;5024432;28;20472;-62
2021/10/05 10:25:25;;;;;;;1.23;0.75;;;13.10;83.40;;;;;;5025227;28;20148;-62
2021/10/05 10:27:56;;;;;;;2.67;0.75;;;13.10;82.70;;;;;;5024825;28;20416;-61
2021/10/05 10:30:27;;;;;;;2.20;0.73;;;13.00;83.20;;;;;;5023899;28;20204;-62
2021/10/05 10:32:58;;;;;;;8.43;1.23;;;13.00;82.70;;;;;;5028093;28;20541;-61
2021/10/05 10:35:25;;;;;;;6.63;0.80;;;13.00;83.00;;;;;;5030772;28;20539;-62
2021/10/05 10:37:52;;;;;;;1.33;0.60;;;13.10;86.30;;;;;;5022483;28;20152;-61
2021/10/05 10:40:32;;;;;;;3.92;0.70;;;13.10;85.40;;;;;;5025894;28;20046;-61
2021/10/05 10:43:12;;;;;;;5.00;0.90;;;13.00;83.00;;;;;;5024400;28;20107;-62
2021/10/05 10:45:48;;;;;;;3.75;0.90;;;13.00;81.70;;;;;;5025310;28;20352;-62
2021/10/05 10:48:51;;;;;;;5.32;0.70;;;13.00;81.70;;;;;;5019893;28;20377;-61
2021/10/05 10:51:20;;;;;;;1.70;0.70;;;13.00;81.40;;;;;;5024221;28;20527;-62
2021/10/05 10:53:47;;;;;;;1.20;0.77;;;13.10;84.40;;;;;;5024618;28;20374;-61
2021/10/05 10:56:15;;;;;;;1.58;1.02;;;13.10;84.20;;;;;;5024340;28;20045;-60
2021/10/05 10:58:45;;;;;;;0.98;0.68;;;13.10;84.60;;;;;;5023776;28;20060;-61
2021/10/05 11:01:15;;;;;;;4.68;1.20;;;13.20;83.60;;;;;;5022294;28;20041;-62
2021/10/05 11:03:42;;;;;;;2.58;0.70;;;13.10;83.30;;;;;;5024369;28;20104;-61
2021/10/05 11:06:23;;;;;;;4.60;0.77;;;13.10;84.00;;;;;;5024917;28;20046;-61
2021/10/05 11:08:59;;;;;;;7.82;0.82;;;13.00;80.90;;;;;;5022566;28;20521;-61
2021/10/05 11:11:37;;;;;;;3.08;0.70;;;13.00;81.30;;;;;;5025448;28;20041;-61
2021/10/05 11:14:05;;;;;;;4.38;0.63;;;13.00;83.40;;;;;;5027888;28;20057;-61
2021/10/05 11:16:33;;;;;;;1.45;0.73;;;13.00;83.60;;;;;;5027443;28;20055;-62
2021/10/05 11:19:16;;;;;;;1.92;0.50;;;12.90;82.40;;;;;;5026707;28;20636;-61
2021/10/05 11:21:45;;;;;;;1.95;0.50;;;13.00;82.60;;;;;;5026754;28;20257;-62
2021/10/05 11:24:13;;;;;;;1.90;0.70;;;12.90;83.40;;;;;;5026950;28;20656;-62
2021/10/05 11:26:48;;;;;;;2.33;0.77;;;13.00;84.20;;;;;;5027026;28;20090;-61
2021/10/05 11:29:28;;;;;;;1.95;0.60;;;13.00;83.10;;;;;;5026841;28;20050;-60
2021/10/05 11:31:59;;;;;;;6.55;0.77;;;13.10;82.60;;;;;;5024372;28;20064;-61
2021/10/05 11:34:26;;;;;;;7.32;1.02;;;13.20;84.60;;;;;;5025442;28;20049;-61
2021/10/05 11:36:53;;;;;;;9.50;0.75;;;13.30;83.80;;;;;;5024089;28;20080;-61
2021/10/05 11:39:26;;;;;;;7.32;0.88;;;13.40;84.60;;;;;;5026956;28;20530;-62
2021/10/05 11:41:58;;;;;;;0.75;0.43;;;13.40;83.70;;;;;;5027208;28;20408;-62
2021/10/05 11:44:26;;;;;;;3.92;0.80;;;13.40;84.10;;;;;;5027413;28;20682;-62
2021/10/05 11:46:54;;;;;;;2.95;0.70;;;13.40;82.60;;;;;;4974700;28;1537699;-61
2021/10/05 11:49:24;;;;;;;2.38;0.82;;;13.40;83.90;;;;;;5028206;28;20056;-60
2021/10/05 11:51:52;;;;;;;4.43;0.90;;;13.50;81.90;;;;;;5028426;28;20055;-61
2021/10/05 11:54:29;;;;;;;2.63;1.02;;;13.50;81.70;;;;;;5027841;28;20050;-60
2021/10/05 11:56:57;;;;;;;0.70;0.70;;;13.50;79.50;;;;;;5028213;28;20069;-60
2021/10/05 11:59:26;;;;;;;4.55;0.90;;;13.50;81.20;;;;;;5028009;28;20172;-60
2021/10/05 12:01:57;;;;;;;0.93;0.63;;;13.50;81.50;;;;;;5027458;28;20045;-60
2021/10/05 12:04:28;;;;;;;3.15;0.98;;;13.40;82.60;;;;;;5026481;28;20045;-61
2021/10/05 12:07:24;;;;;;;1.33;0.85;;;13.30;83.10;;;;;;5011079;28;20073;-61
2021/10/05 12:09:58;;;;;;;1.48;0.65;;;13.00;87.50;;;;;;5025649;28;20045;-61
2021/10/05 12:12:27;;;;;;;2.17;0.75;;;12.90;88.70;;;;;;5027496;28;20351;-61
2021/10/05 12:15:15;;;;;;;3.42;0.90;;;12.90;87.80;;;;;;5026075;28;20041;-61
2021/10/05 12:18:01;;;;;;;5.95;0.60;;;12.90;88.30;;;;;;5013916;28;20041;-61
2021/10/05 12:21:05;;;;;;;7.70;0.88;;;12.90;88.00;;;;;;5027508;28;20049;-62
2021/10/05 12:23:33;;;;;;;1.90;0.60;;;12.90;87.00;;;;;;5010982;28;20067;-60
2021/10/05 12:26:09;;;;;;;7.43;0.98;;;13.00;87.70;;;;;;5027041;28;20050;-60
2021/10/05 12:28:36;;;;;;;8.02;1.20;;;13.10;88.40;;;;;;5026647;28;20567;-61
2021/10/05 12:31:13;;;;;;;5.35;0.88;;;13.30;87.10;;;;;;5025692;28;20111;-61
2021/10/05 12:33:40;;;;;;;2.63;0.82;;;13.50;85.10;;;;;;5027059;28;20530;-61
2021/10/05 12:36:07;;;;;;;1.85;0.90;;;13.60;84.60;;;;;;5027525;28;20049;-60
2021/10/05 12:38:36;;;;;;;3.85;0.82;;;13.60;83.10;;;;;;5027242;28;20451;-61
2021/10/05 12:41:08;;;;;;;2.60;0.85;;;13.70;83.10;;;;;;5027145;28;20037;-62
2021/10/05 12:43:35;;;;;;;2.05;0.90;;;13.80;82.30;;;;;;5027076;28;20045;-60
2021/10/05 12:46:17;;;;;;;2.03;0.70;;;13.80;83.00;;;;;;5027183;28;20095;-61
2021/10/05 12:48:45;;;;;;;3.30;0.90;;;13.80;79.30;;;;;;5026724;28;20487;-61
2021/10/05 12:51:27;;;;;;;5.50;0.73;;;13.90;80.60;;;;;;5025587;28;20444;-61
2021/10/05 12:53:58;;;;;;;1.77;0.80;;;13.80;78.60;;;;;;5026804;28;20080;-61
2021/10/05 12:56:25;;;;;;;2.97;0.77;;;13.90;80.90;;;;;;5026636;28;20077;-63